createdAt,value
2023-01-19T00:04:18.938Z,2.80
2023-01-19T00:14:40.224Z,2.40
2023-01-19T00:25:03.500Z,2.20
2023-01-19T00:35:25.183Z,2.30
2023-01-19T00:45:48.160Z,2.40
2023-01-19T00:56:09.757Z,2.30
2023-01-19T01:06:32.921Z,2.30
2023-01-19T01:16:55.063Z,2.20
2023-01-19T01:27:18.109Z,2.40
2023-01-19T01:37:40.342Z,2.20
2023-01-19T01:48:09.770Z,2.10
2023-01-19T01:58:32.316Z,2.00
2023-01-19T02:09:17.890Z,1.90
2023-01-19T02:19:43.595Z,1.70
2023-01-19T02:30:08.458Z,1.60
2023-01-19T02:40:30.161Z,1.70
2023-01-19T02:50:56.014Z,1.70
2023-01-19T03:01:25.048Z,1.80
2023-01-19T03:11:52.468Z,1.70
2023-01-19T03:22:16.548Z,1.70
2023-01-19T03:32:52.920Z,1.60
2023-01-19T03:43:17.301Z,1.60
2023-01-19T03:53:40.313Z,1.60
2023-01-19T04:04:01.934Z,1.50
2023-01-19T04:14:25.059Z,1.40
2023-01-19T04:24:46.643Z,1.30
2023-01-19T04:35:09.640Z,1.20
2023-01-19T04:45:31.006Z,1.00
2023-01-19T04:55:55.899Z,1.00
2023-01-19T05:06:17.302Z,0.90
2023-01-19T05:16:40.451Z,0.90
2023-01-19T05:27:02.146Z,1.00
2023-01-19T05:37:24.941Z,1.10
2023-01-19T05:47:46.195Z,1.10
2023-01-19T05:58:08.829Z,1.20
2023-01-19T06:08:30.897Z,1.10
2023-01-19T06:18:54.170Z,1.00
2023-01-19T06:29:15.713Z,0.90
2023-01-19T06:39:41.095Z,0.90
2023-01-19T06:50:03.505Z,0.90
2023-01-19T07:00:27.261Z,0.90
2023-01-19T07:11:25.126Z,0.90
2023-01-19T07:21:32.951Z,0.90
2023-01-19T07:31:54.975Z,1.00
2023-01-19T07:42:18.011Z,1.30
2023-01-19T07:52:41.941Z,1.50
2023-01-19T08:03:05.748Z,1.70
2023-01-19T08:13:27.862Z,1.80
2023-01-19T08:23:54.984Z,2.00
2023-01-19T08:34:16.790Z,2.10
2023-01-19T08:44:46.797Z,2.30
2023-01-19T08:55:19.026Z,2.60
2023-01-19T09:05:42.364Z,2.70
2023-01-19T09:16:04.842Z,3.10
2023-01-19T09:26:28.025Z,3.70
2023-01-19T09:36:49.489Z,4.10
2023-01-19T09:47:17.738Z,4.70
2023-01-19T09:57:39.115Z,5.20
2023-01-19T10:08:13.668Z,5.50
2023-01-19T10:18:47.440Z,5.50
2023-01-19T10:29:19.484Z,6.10
2023-01-19T10:39:42.993Z,5.90
2023-01-19T10:50:24.874Z,6.40
2023-01-19T11:00:46.677Z,6.80
2023-01-19T11:11:12.268Z,6.60
2023-01-19T11:21:34.293Z,7.50
2023-01-19T11:32:11.825Z,7.50
2023-01-19T11:42:37.097Z,7.40
2023-01-19T11:53:05.905Z,7.40
2023-01-19T12:03:31.654Z,7.40
2023-01-19T12:13:55.013Z,7.80
2023-01-19T12:24:20.300Z,7.90
2023-01-19T12:34:44.963Z,7.40
2023-01-19T12:45:09.757Z,7.50
2023-01-19T12:55:35.481Z,7.60
2023-01-19T13:05:57.741Z,7.30
2023-01-19T13:16:53.835Z,7.10
2023-01-19T13:27:15.349Z,6.90
2023-01-19T13:37:41.560Z,7.10
2023-01-19T13:48:09.423Z,6.90
2023-01-19T13:58:32.986Z,6.90
2023-01-19T14:09:18.238Z,6.80
2023-01-19T14:19:50.764Z,6.50
2023-01-19T14:30:25.003Z,6.60
2023-01-19T14:40:48.110Z,6.40
2023-01-19T14:51:19.732Z,6.00
2023-01-19T15:01:42.873Z,5.70
2023-01-19T15:12:04.892Z,5.40
2023-01-19T15:22:29.839Z,5.30
2023-01-19T15:32:51.636Z,5.10
2023-01-19T15:43:14.856Z,5.00
2023-01-19T15:53:36.516Z,4.90
2023-01-19T16:04:01.702Z,5.00
2023-01-19T16:14:23.405Z,5.10
2023-01-19T16:24:46.297Z,5.00
2023-01-19T16:35:08.232Z,4.80
2023-01-19T16:45:31.192Z,4.80
2023-01-19T16:55:53.899Z,4.90
2023-01-19T17:06:20.106Z,5.00
2023-01-19T17:16:42.117Z,5.00
2023-01-19T17:27:05.336Z,5.10
2023-01-19T17:37:27.082Z,5.00
2023-01-19T17:47:51.062Z,5.00
2023-01-19T17:58:13.211Z,5.00
2023-01-19T18:08:38.680Z,4.90
2023-01-19T18:19:01.352Z,5.00
2023-01-19T18:29:24.076Z,5.10
2023-01-19T18:39:45.621Z,5.10
2023-01-19T18:50:09.767Z,5.40
2023-01-19T19:00:31.675Z,5.50
2023-01-19T19:10:54.793Z,5.70
2023-01-19T19:21:17.743Z,5.80
2023-01-19T19:31:41.011Z,5.90
2023-01-19T19:42:02.845Z,5.80
2023-01-19T19:52:27.526Z,5.80
2023-01-19T20:02:51.556Z,5.80
2023-01-19T20:13:17.731Z,5.80
2023-01-19T20:23:39.011Z,5.70
2023-01-19T20:34:04.690Z,5.80
2023-01-19T20:44:27.452Z,5.90
2023-01-19T20:54:52.127Z,6.00
2023-01-19T21:05:13.968Z,6.00
2023-01-19T21:15:37.000Z,6.10
2023-01-19T21:26:00.716Z,6.00
2023-01-19T21:36:24.752Z,6.10
2023-01-19T21:46:46.739Z,6.30
2023-01-19T21:57:09.651Z,6.20
2023-01-19T22:07:31.581Z,6.30
2023-01-19T22:17:54.641Z,6.30
2023-01-19T22:28:16.277Z,6.40
2023-01-19T22:38:40.154Z,6.40
2023-01-19T22:49:01.601Z,6.40
2023-01-19T22:59:24.335Z,6.30
2023-01-19T23:09:46.118Z,6.30
2023-01-19T23:20:11.068Z,6.30
2023-01-19T23:30:32.880Z,6.30
2023-01-19T23:40:59.208Z,6.30
2023-01-19T23:51:23.110Z,6.30
